sensor_id;sensor_type;location;lat;lon;timestamp;pressure;altitude;pressure_sealevel;temperature;humidity
68656;BME280;55638;51.122;13.606;2023-01-31T00:00:15;100089.16;;;3.02;55.26
68656;BME280;55638;51.122;13.606;2023-01-31T00:01:47;100091.03;;;3.00;55.23
68656;BME280;55638;51.122;13.606;2023-01-31T00:03:19;100090.34;;;2.96;55.41
68656;BME280;55638;51.122;13.606;2023-01-31T00:04:50;100093.88;;;2.97;55.52
68656;BME280;55638;51.122;13.606;2023-01-31T00:06:32;100086.91;;;2.94;55.72
68656;BME280;55638;51.122;13.606;2023-01-31T00:08:05;100089.66;;;2.93;55.62
68656;BME280;55638;51.122;13.606;2023-01-31T00:09:37;100095.06;;;2.91;55.53
68656;BME280;55638;51.122;13.606;2023-01-31T00:11:09;100087.16;;;2.90;55.68
68656;BME280;55638;51.122;13.606;2023-01-31T00:12:41;100083.56;;;2.91;55.57
68656;BME280;55638;51.122;13.606;2023-01-31T00:14:17;100092.56;;;2.88;55.80
68656;BME280;55638;51.122;13.606;2023-01-31T00:15:49;100094.25;;;2.89;55.76
68656;BME280;55638;51.122;13.606;2023-01-31T00:17:21;100090.84;;;2.87;55.97
68656;BME280;55638;51.122;13.606;2023-01-31T00:18:53;100093.41;;;2.89;56.03
68656;BME280;55638;51.122;13.606;2023-01-31T00:20:25;100089.88;;;2.88;56.20
68656;BME280;55638;51.122;13.606;2023-01-31T00:21:56;100089.66;;;2.93;56.23
68656;BME280;55638;51.122;13.606;2023-01-31T00:23:28;100095.84;;;2.93;56.20
68656;BME280;55638;51.122;13.606;2023-01-31T00:25:00;100102.09;;;2.92;56.35
68656;BME280;55638;51.122;13.606;2023-01-31T00:26:33;100102.88;;;2.94;56.26
68656;BME280;55638;51.122;13.606;2023-01-31T00:28:05;100114.22;;;2.98;56.41
68656;BME280;55638;51.122;13.606;2023-01-31T00:29:38;100104.25;;;3.02;56.19
68656;BME280;55638;51.122;13.606;2023-01-31T00:31:10;100105.81;;;3.06;56.22
68656;BME280;55638;51.122;13.606;2023-01-31T00:32:43;100106.44;;;3.11;56.28
68656;BME280;55638;51.122;13.606;2023-01-31T00:34:14;100107.22;;;3.13;56.31
68656;BME280;55638;51.122;13.606;2023-01-31T00:35:47;100116.94;;;3.14;56.25
68656;BME280;55638;51.122;13.606;2023-01-31T00:37:20;100115.81;;;3.18;56.20
68656;BME280;55638;51.122;13.606;2023-01-31T00:38:55;100124.59;;;3.20;56.20
68656;BME280;55638;51.122;13.606;2023-01-31T00:40:27;100124.44;;;3.23;56.00
68656;BME280;55638;51.122;13.606;2023-01-31T00:41:59;100114.53;;;3.25;56.01
68656;BME280;55638;51.122;13.606;2023-01-31T00:43:31;100123.31;;;3.27;56.04
68656;BME280;55638;51.122;13.606;2023-01-31T00:45:03;100130.19;;;3.31;55.80
68656;BME280;55638;51.122;13.606;2023-01-31T00:46:35;100124.78;;;3.33;55.76
68656;BME280;55638;51.122;13.606;2023-01-31T00:48:08;100123.84;;;3.34;55.74
68656;BME280;55638;51.122;13.606;2023-01-31T00:49:39;100124.78;;;3.33;55.80
68656;BME280;55638;51.122;13.606;2023-01-31T00:51:11;100135.44;;;3.33;55.56
68656;BME280;55638;51.122;13.606;2023-01-31T00:52:43;100125.66;;;3.33;55.58
68656;BME280;55638;51.122;13.606;2023-01-31T00:54:15;100132.09;;;3.29;55.52
68656;BME280;55638;51.122;13.606;2023-01-31T00:55:47;100142.59;;;3.32;55.62
68656;BME280;55638;51.122;13.606;2023-01-31T00:57:18;100135.34;;;3.34;55.28
68656;BME280;55638;51.122;13.606;2023-01-31T00:58:51;100134.59;;;3.32;55.42
68656;BME280;55638;51.122;13.606;2023-01-31T01:00:24;100147.91;;;3.32;55.02
68656;BME280;55638;51.122;13.606;2023-01-31T01:01:56;100146.19;;;3.31;54.91
68656;BME280;55638;51.122;13.606;2023-01-31T01:03:27;100152.63;;;3.27;54.81
68656;BME280;55638;51.122;13.606;2023-01-31T01:04:59;100146.34;;;3.28;54.81
68656;BME280;55638;51.122;13.606;2023-01-31T01:06:31;100134.91;;;3.26;54.70
68656;BME280;55638;51.122;13.606;2023-01-31T01:08:03;100144.00;;;3.22;54.63
68656;BME280;55638;51.122;13.606;2023-01-31T01:09:35;100144.94;;;3.21;54.41
68656;BME280;55638;51.122;13.606;2023-01-31T01:11:09;100149.69;;;3.16;54.46
68656;BME280;55638;51.122;13.606;2023-01-31T01:12:41;100149.84;;;3.13;54.30
68656;BME280;55638;51.122;13.606;2023-01-31T01:14:17;100151.72;;;3.11;54.37
68656;BME280;55638;51.122;13.606;2023-01-31T01:15:50;100160.81;;;3.07;54.52
68656;BME280;55638;51.122;13.606;2023-01-31T01:17:22;100169.91;;;3.03;54.45
68656;BME280;55638;51.122;13.606;2023-01-31T01:18:54;100174.44;;;3.01;54.35
68656;BME280;55638;51.122;13.606;2023-01-31T01:20:27;100172.97;;;2.95;54.44
68656;BME280;55638;51.122;13.606;2023-01-31T01:21:58;100181.75;;;2.97;54.42
68656;BME280;55638;51.122;13.606;2023-01-31T01:23:31;100183.63;;;2.95;54.66
68656;BME280;55638;51.122;13.606;2023-01-31T01:25:04;100201.56;;;2.91;54.50
68656;BME280;55638;51.122;13.606;2023-01-31T01:26:36;100190.09;;;2.89;54.78
68656;BME280;55638;51.122;13.606;2023-01-31T01:28:08;100185.84;;;2.87;54.74
68656;BME280;55638;51.122;13.606;2023-01-31T01:29:40;100190.34;;;2.85;54.84
68656;BME280;55638;51.122;13.606;2023-01-31T01:31:13;100185.19;;;2.82;55.00
68656;BME280;55638;51.122;13.606;2023-01-31T01:32:48;100189.72;;;2.80;54.84
68656;BME280;55638;51.122;13.606;2023-01-31T01:34:19;100192.47;;;2.78;54.81
68656;BME280;55638;51.122;13.606;2023-01-31T01:35:51;100197.97;;;2.75;55.14
68656;BME280;55638;51.122;13.606;2023-01-31T01:37:23;100197.41;;;2.68;55.13
68656;BME280;55638;51.122;13.606;2023-01-31T01:38:55;100211.88;;;2.63;55.16
68656;BME280;55638;51.122;13.606;2023-01-31T01:40:34;100206.84;;;2.57;55.30
68656;BME280;55638;51.122;13.606;2023-01-31T01:42:13;100201.78;;;2.52;55.51
68656;BME280;55638;51.122;13.606;2023-01-31T01:43:53;100206.41;;;2.48;55.57
68656;BME280;55638;51.122;13.606;2023-01-31T01:45:25;100209.25;;;2.44;55.62
68656;BME280;55638;51.122;13.606;2023-01-31T01:46:58;100208.56;;;2.40;56.04
68656;BME280;55638;51.122;13.606;2023-01-31T01:48:31;100206.13;;;2.36;55.96
68656;BME280;55638;51.122;13.606;2023-01-31T01:51:42;100218.63;;;2.34;56.20
68656;BME280;55638;51.122;13.606;2023-01-31T01:53:17;100215.22;;;2.32;56.49
68656;BME280;55638;51.122;13.606;2023-01-31T01:54:55;100228.50;;;2.32;56.59
68656;BME280;55638;51.122;13.606;2023-01-31T01:56:31;100220.53;;;2.32;56.88
68656;BME280;55638;51.122;13.606;2023-01-31T01:58:14;100229.44;;;2.31;57.16
68656;BME280;55638;51.122;13.606;2023-01-31T01:59:54;100219.44;;;2.36;56.96
68656;BME280;55638;51.122;13.606;2023-01-31T02:01:33;100218.44;;;2.38;57.13
68656;BME280;55638;51.122;13.606;2023-01-31T02:03:09;100217.41;;;2.41;57.13
68656;BME280;55638;51.122;13.606;2023-01-31T02:04:43;100214.69;;;2.42;57.01
68656;BME280;55638;51.122;13.606;2023-01-31T02:06:17;100218.91;;;2.46;57.07
68656;BME280;55638;51.122;13.606;2023-01-31T02:07:49;100222.34;;;2.48;57.08
68656;BME280;55638;51.122;13.606;2023-01-31T02:09:30;100213.44;;;2.49;57.11
68656;BME280;55638;51.122;13.606;2023-01-31T02:11:22;100222.06;;;2.55;56.80
68656;BME280;55638;51.122;13.606;2023-01-31T02:12:54;100215.63;;;2.59;56.87
68656;BME280;55638;51.122;13.606;2023-01-31T02:14:26;100215.53;;;2.60;56.92
68656;BME280;55638;51.122;13.606;2023-01-31T02:15:58;100214.53;;;2.63;57.05
68656;BME280;55638;51.122;13.606;2023-01-31T02:17:31;100215.25;;;2.66;56.89
68656;BME280;55638;51.122;13.606;2023-01-31T02:19:05;100216.91;;;2.69;56.92
68656;BME280;55638;51.122;13.606;2023-01-31T02:24:58;100222.00;;;2.73;56.66
68656;BME280;55638;51.122;13.606;2023-01-31T02:28:41;100228.63;;;2.82;56.38
68656;BME280;55638;51.122;13.606;2023-01-31T02:30:43;100230.44;;;2.82;56.34
68656;BME280;55638;51.122;13.606;2023-01-31T02:34:48;100240.09;;;2.84;56.10
68656;BME280;55638;51.122;13.606;2023-01-31T02:36:36;100235.53;;;2.86;56.15
68656;BME280;55638;51.122;13.606;2023-01-31T02:38:35;100248.94;;;2.85;55.97
68656;BME280;55638;51.122;13.606;2023-01-31T02:44:00;100259.56;;;2.85;55.94
68656;BME280;55638;51.122;13.606;2023-01-31T02:46:08;100248.69;;;2.89;55.93
68656;BME280;55638;51.122;13.606;2023-01-31T02:48:14;100244.31;;;2.88;56.03
68656;BME280;55638;51.122;13.606;2023-01-31T02:49:58;100258.31;;;2.92;55.62
68656;BME280;55638;51.122;13.606;2023-01-31T02:51:40;100256.53;;;2.92;55.92
68656;BME280;55638;51.122;13.606;2023-01-31T02:53:36;100270.63;;;2.94;55.86
68656;BME280;55638;51.122;13.606;2023-01-31T02:55:17;100262.47;;;2.97;55.46
68656;BME280;55638;51.122;13.606;2023-01-31T02:57:11;100272.19;;;2.99;55.60
68656;BME280;55638;51.122;13.606;2023-01-31T03:00:36;100283.63;;;3.01;55.61
68656;BME280;55638;51.122;13.606;2023-01-31T03:02:10;100273.94;;;3.00;55.40
68656;BME280;55638;51.122;13.606;2023-01-31T03:03:43;100278.31;;;3.01;55.40
68656;BME280;55638;51.122;13.606;2023-01-31T03:05:16;100281.94;;;3.00;55.37
68656;BME280;55638;51.122;13.606;2023-01-31T03:06:54;100277.44;;;3.00;55.44
68656;BME280;55638;51.122;13.606;2023-01-31T03:08:32;100271.88;;;3.05;55.34
68656;BME280;55638;51.122;13.606;2023-01-31T03:12:12;100293.28;;;3.03;55.39
68656;BME280;55638;51.122;13.606;2023-01-31T03:14:00;100306.66;;;3.02;55.25
68656;BME280;55638;51.122;13.606;2023-01-31T03:16:27;100314.78;;;2.99;55.47
68656;BME280;55638;51.122;13.606;2023-01-31T03:18:12;100320.81;;;3.02;55.24
68656;BME280;55638;51.122;13.606;2023-01-31T03:22:14;100321.94;;;2.98;55.45
68656;BME280;55638;51.122;13.606;2023-01-31T03:23:50;100337.91;;;2.98;55.59
68656;BME280;55638;51.122;13.606;2023-01-31T03:25:27;100331.72;;;2.97;55.68
68656;BME280;55638;51.122;13.606;2023-01-31T03:27:02;100338.06;;;2.95;55.64
68656;BME280;55638;51.122;13.606;2023-01-31T03:28:37;100347.13;;;2.91;55.57
68656;BME280;55638;51.122;13.606;2023-01-31T03:30:16;100353.47;;;2.88;55.81
68656;BME280;55638;51.122;13.606;2023-01-31T03:31:59;100354.56;;;2.84;56.05
68656;BME280;55638;51.122;13.606;2023-01-31T03:33:37;100360.91;;;2.82;55.99
68656;BME280;55638;51.122;13.606;2023-01-31T03:35:11;100365.38;;;2.81;56.01
68656;BME280;55638;51.122;13.606;2023-01-31T03:38:51;100381.53;;;2.77;56.08
68656;BME280;55638;51.122;13.606;2023-01-31T03:40:31;100378.97;;;2.75;56.23
68656;BME280;55638;51.122;13.606;2023-01-31T03:42:15;100373.66;;;2.75;56.25
68656;BME280;55638;51.122;13.606;2023-01-31T03:44:12;100377.53;;;2.68;56.30
68656;BME280;55638;51.122;13.606;2023-01-31T03:45:53;100374.22;;;2.63;56.59
68656;BME280;55638;51.122;13.606;2023-01-31T03:47:32;100366.31;;;2.61;56.49
68656;BME280;55638;51.122;13.606;2023-01-31T03:49:08;100374.38;;;2.60;56.45
68656;BME280;55638;51.122;13.606;2023-01-31T03:50:55;100370.94;;;2.58;56.27
68656;BME280;55638;51.122;13.606;2023-01-31T03:52:33;100378.19;;;2.54;56.39
68656;BME280;55638;51.122;13.606;2023-01-31T03:54:15;100377.53;;;2.49;56.40
68656;BME280;55638;51.122;13.606;2023-01-31T03:56:08;100380.28;;;2.47;56.24
68656;BME280;55638;51.122;13.606;2023-01-31T03:57:49;100380.34;;;2.46;56.36
68656;BME280;55638;51.122;13.606;2023-01-31T03:59:27;100377.97;;;2.40;56.71
68656;BME280;55638;51.122;13.606;2023-01-31T04:01:01;100369.13;;;2.39;56.64
68656;BME280;55638;51.122;13.606;2023-01-31T04:02:36;100366.59;;;2.36;56.68
68656;BME280;55638;51.122;13.606;2023-01-31T04:04:18;100373.16;;;2.29;56.89
68656;BME280;55638;51.122;13.606;2023-01-31T04:05:52;100381.13;;;2.29;56.60
68656;BME280;55638;51.122;13.606;2023-01-31T04:07:25;100383.00;;;2.27;56.80
68656;BME280;55638;51.122;13.606;2023-01-31T04:08:57;100384.16;;;2.21;56.67
68656;BME280;55638;51.122;13.606;2023-01-31T04:10:29;100385.16;;;2.19;57.02
68656;BME280;55638;51.122;13.606;2023-01-31T04:12:01;100386.00;;;2.19;57.00
68656;BME280;55638;51.122;13.606;2023-01-31T04:13:33;100379.97;;;2.16;56.96
68656;BME280;55638;51.122;13.606;2023-01-31T04:15:06;100375.56;;;2.15;57.07
68656;BME280;55638;51.122;13.606;2023-01-31T04:16:38;100389.03;;;2.12;57.14
68656;BME280;55638;51.122;13.606;2023-01-31T04:18:09;100376.66;;;2.11;57.42
68656;BME280;55638;51.122;13.606;2023-01-31T04:19:41;100374.84;;;2.11;57.61
68656;BME280;55638;51.122;13.606;2023-01-31T04:21:13;100378.53;;;2.09;57.49
68656;BME280;55638;51.122;13.606;2023-01-31T04:22:45;100366.09;;;2.09;57.52
68656;BME280;55638;51.122;13.606;2023-01-31T04:24:17;100364.34;;;2.08;57.58
68656;BME280;55638;51.122;13.606;2023-01-31T04:25:52;100366.16;;;2.08;57.73
68656;BME280;55638;51.122;13.606;2023-01-31T04:27:23;100371.47;;;2.08;57.71
68656;BME280;55638;51.122;13.606;2023-01-31T04:28:55;100372.31;;;2.08;57.64
68656;BME280;55638;51.122;13.606;2023-01-31T04:30:27;100372.31;;;2.08;57.86
68656;BME280;55638;51.122;13.606;2023-01-31T04:31:59;100382.06;;;2.09;57.90
68656;BME280;55638;51.122;13.606;2023-01-31T04:33:31;100391.75;;;2.10;57.92
68656;BME280;55638;51.122;13.606;2023-01-31T04:35:03;100383.72;;;2.12;57.87
68656;BME280;55638;51.122;13.606;2023-01-31T04:36:35;100389.03;;;2.12;58.01
68656;BME280;55638;51.122;13.606;2023-01-31T04:38:07;100388.88;;;2.15;57.83
68656;BME280;55638;51.122;13.606;2023-01-31T04:39:39;100377.22;;;2.17;57.96
68656;BME280;55638;51.122;13.606;2023-01-31T04:41:10;100386.88;;;2.20;57.82
68656;BME280;55638;51.122;13.606;2023-01-31T04:42:42;100384.34;;;2.17;58.21
68656;BME280;55638;51.122;13.606;2023-01-31T04:44:14;100388.59;;;2.21;58.07
68656;BME280;55638;51.122;13.606;2023-01-31T04:45:47;100392.06;;;2.23;57.86
68656;BME280;55638;51.122;13.606;2023-01-31T04:47:19;100398.94;;;2.27;57.74
68656;BME280;55638;51.122;13.606;2023-01-31T04:48:50;100394.34;;;2.31;57.74
68656;BME280;55638;51.122;13.606;2023-01-31T04:50:22;100400.38;;;2.34;57.81
68656;BME280;55638;51.122;13.606;2023-01-31T04:51:54;100401.19;;;2.36;57.67
68656;BME280;55638;51.122;13.606;2023-01-31T04:53:26;100397.59;;;2.37;57.65
68656;BME280;55638;51.122;13.606;2023-01-31T04:54:58;100390.31;;;2.41;57.79
68656;BME280;55638;51.122;13.606;2023-01-31T04:56:30;100392.94;;;2.42;57.66
68656;BME280;55638;51.122;13.606;2023-01-31T04:58:02;100388.41;;;2.44;57.82
68656;BME280;55638;51.122;13.606;2023-01-31T04:59:37;100403.28;;;2.48;57.68
68656;BME280;55638;51.122;13.606;2023-01-31T05:01:08;100404.88;;;2.53;57.50
68656;BME280;55638;51.122;13.606;2023-01-31T05:02:40;100404.81;;;2.54;57.55
68656;BME280;55638;51.122;13.606;2023-01-31T05:04:12;100402.88;;;2.58;57.37
68656;BME280;55638;51.122;13.606;2023-01-31T05:05:47;100409.91;;;2.59;57.37
68656;BME280;55638;51.122;13.606;2023-01-31T05:07:18;100400.94;;;2.61;57.32
68656;BME280;55638;51.122;13.606;2023-01-31T05:08:50;100421.22;;;2.64;57.28
68656;BME280;55638;51.122;13.606;2023-01-31T05:10:25;100412.19;;;2.66;57.28
68656;BME280;55638;51.122;13.606;2023-01-31T05:11:56;100420.13;;;2.68;57.24
68656;BME280;55638;51.122;13.606;2023-01-31T05:13:28;100431.50;;;2.71;57.25
68656;BME280;55638;51.122;13.606;2023-01-31T05:15:04;100413.72;;;2.72;57.25
68656;BME280;55638;51.122;13.606;2023-01-31T05:16:38;100404.72;;;2.75;57.17
68656;BME280;55638;51.122;13.606;2023-01-31T05:18:10;100408.25;;;2.75;57.21
68656;BME280;55638;51.122;13.606;2023-01-31T05:19:41;100422.38;;;2.77;57.16
68656;BME280;55638;51.122;13.606;2023-01-31T05:21:14;100417.81;;;2.79;57.04
68656;BME280;55638;51.122;13.606;2023-01-31T05:22:46;100423.13;;;2.79;56.93
68656;BME280;55638;51.122;13.606;2023-01-31T05:24:20;100420.31;;;2.82;56.90
68656;BME280;55638;51.122;13.606;2023-01-31T05:25:52;100416.81;;;2.82;57.04
68656;BME280;55638;51.122;13.606;2023-01-31T05:27:24;100415.09;;;2.81;57.01
68656;BME280;55638;51.122;13.606;2023-01-31T05:28:56;100417.66;;;2.82;57.04
68656;BME280;55638;51.122;13.606;2023-01-31T05:30:31;100414.84;;;2.85;56.97
68656;BME280;55638;51.122;13.606;2023-01-31T05:32:03;100422.78;;;2.87;56.79
68656;BME280;55638;51.122;13.606;2023-01-31T05:33:36;100414.72;;;2.88;56.93
68656;BME280;55638;51.122;13.606;2023-01-31T05:35:08;100423.66;;;2.87;56.94
68656;BME280;55638;51.122;13.606;2023-01-31T05:36:43;100414.72;;;2.88;56.75
68656;BME280;55638;51.122;13.606;2023-01-31T05:38:15;100417.38;;;2.88;56.95
68656;BME280;55638;51.122;13.606;2023-01-31T05:39:46;100417.31;;;2.90;56.82
68656;BME280;55638;51.122;13.606;2023-01-31T05:41:18;100420.03;;;2.88;56.74
68656;BME280;55638;51.122;13.606;2023-01-31T05:42:57;100419.19;;;2.88;56.85
68656;BME280;55638;51.122;13.606;2023-01-31T05:44:33;100416.44;;;2.89;56.82
68656;BME280;55638;51.122;13.606;2023-01-31T05:46:05;100427.06;;;2.89;56.92
68656;BME280;55638;51.122;13.606;2023-01-31T05:47:37;100425.31;;;2.90;56.75
68656;BME280;55638;51.122;13.606;2023-01-31T05:49:09;100420.75;;;2.92;56.73
68656;BME280;55638;51.122;13.606;2023-01-31T05:50:41;100430.50;;;2.93;56.76
68656;BME280;55638;51.122;13.606;2023-01-31T05:52:12;100427.72;;;2.94;56.79
68656;BME280;55638;51.122;13.606;2023-01-31T05:53:44;100431.34;;;2.93;56.73
68656;BME280;55638;51.122;13.606;2023-01-31T05:55:17;100433.19;;;2.91;56.77
68656;BME280;55638;51.122;13.606;2023-01-31T05:56:50;100429.59;;;2.92;56.69
68656;BME280;55638;51.122;13.606;2023-01-31T05:58:21;100434.91;;;2.92;56.82
68656;BME280;55638;51.122;13.606;2023-01-31T05:59:53;100419.91;;;2.91;56.80
68656;BME280;55638;51.122;13.606;2023-01-31T06:01:26;100430.50;;;2.93;56.64
68656;BME280;55638;51.122;13.606;2023-01-31T06:02:58;100426.03;;;2.93;56.64
68656;BME280;55638;51.122;13.606;2023-01-31T06:04:31;100429.59;;;2.92;56.83
68656;BME280;55638;51.122;13.606;2023-01-31T06:06:04;100422.56;;;2.91;56.69
68656;BME280;55638;51.122;13.606;2023-01-31T06:07:36;100428.75;;;2.92;56.82
68656;BME280;55638;51.122;13.606;2023-01-31T06:09:08;100426.94;;;2.92;56.63
68656;BME280;55638;51.122;13.606;2023-01-31T06:10:39;100429.59;;;2.92;56.68
68656;BME280;55638;51.122;13.606;2023-01-31T06:12:12;100436.66;;;2.93;56.78
68656;BME280;55638;51.122;13.606;2023-01-31T06:13:47;100430.53;;;2.91;56.85
68656;BME280;55638;51.122;13.606;2023-01-31T06:15:19;100431.50;;;2.90;56.69
68656;BME280;55638;51.122;13.606;2023-01-31T06:16:52;100437.66;;;2.91;56.73
68656;BME280;55638;51.122;13.606;2023-01-31T06:18:24;100434.16;;;2.90;56.90
68656;BME280;55638;51.122;13.606;2023-01-31T06:19:57;100441.19;;;2.91;56.84
68656;BME280;55638;51.122;13.606;2023-01-31T06:21:29;100436.66;;;2.93;56.89
68656;BME280;55638;51.122;13.606;2023-01-31T06:23:01;100437.59;;;2.92;56.68
68656;BME280;55638;51.122;13.606;2023-01-31T06:24:33;100440.25;;;2.92;56.80
68656;BME280;55638;51.122;13.606;2023-01-31T06:26:05;100443.72;;;2.94;56.76
68656;BME280;55638;51.122;13.606;2023-01-31T06:27:37;100445.56;;;2.92;56.72
68656;BME280;55638;51.122;13.606;2023-01-31T06:29:08;100442.91;;;2.92;56.77
68656;BME280;55638;51.122;13.606;2023-01-31T06:30:40;100447.31;;;2.93;56.83
68656;BME280;55638;51.122;13.606;2023-01-31T06:32:12;100457.97;;;2.93;56.78
68656;BME280;55638;51.122;13.606;2023-01-31T06:33:44;100467.59;;;2.96;56.85
68656;BME280;55638;51.122;13.606;2023-01-31T06:35:18;100458.75;;;2.95;56.78
68656;BME280;55638;51.122;13.606;2023-01-31T06:36:50;100457.97;;;2.93;56.97
68656;BME280;55638;51.122;13.606;2023-01-31T06:38:22;100462.59;;;2.90;56.91
68656;BME280;55638;51.122;13.606;2023-01-31T06:39:54;100463.44;;;2.90;56.82
68656;BME280;55638;51.122;13.606;2023-01-31T06:41:26;100445.81;;;2.88;56.97
68656;BME280;55638;51.122;13.606;2023-01-31T06:42:58;100455.66;;;2.86;56.78
68656;BME280;55638;51.122;13.606;2023-01-31T06:44:30;100454.03;;;2.83;56.76
68656;BME280;55638;51.122;13.606;2023-01-31T06:46:05;100451.50;;;2.80;56.86
68656;BME280;55638;51.122;13.606;2023-01-31T06:47:37;100441.00;;;2.77;57.18
68656;BME280;55638;51.122;13.606;2023-01-31T06:49:09;100445.50;;;2.75;57.05
68656;BME280;55638;51.122;13.606;2023-01-31T06:50:41;100440.28;;;2.73;57.18
68656;BME280;55638;51.122;13.606;2023-01-31T06:52:13;100439.38;;;2.73;57.20
68656;BME280;55638;51.122;13.606;2023-01-31T06:53:45;100440.44;;;2.70;57.16
68656;BME280;55638;51.122;13.606;2023-01-31T06:55:18;100444.94;;;2.68;57.20
68656;BME280;55638;51.122;13.606;2023-01-31T06:56:50;100452.22;;;2.65;57.30
68656;BME280;55638;51.122;13.606;2023-01-31T06:58:22;100447.75;;;2.65;57.25
68656;BME280;55638;51.122;13.606;2023-01-31T06:59:54;100445.22;;;2.62;57.32
68656;BME280;55638;51.122;13.606;2023-01-31T07:01:26;100441.63;;;2.63;57.37
68656;BME280;55638;51.122;13.606;2023-01-31T07:02:57;100447.88;;;2.62;57.61
68656;BME280;55638;51.122;13.606;2023-01-31T07:04:29;100451.41;;;2.63;57.39
68656;BME280;55638;51.122;13.606;2023-01-31T07:06:05;100447.75;;;2.65;57.49
68656;BME280;55638;51.122;13.606;2023-01-31T07:07:37;100453.22;;;2.62;57.45
68656;BME280;55638;51.122;13.606;2023-01-31T07:09:10;100455.81;;;2.64;57.42
68656;BME280;55638;51.122;13.606;2023-01-31T07:10:42;100447.03;;;2.62;57.45
68656;BME280;55638;51.122;13.606;2023-01-31T07:12:14;100446.16;;;2.61;57.73
68656;BME280;55638;51.122;13.606;2023-01-31T07:13:46;100457.53;;;2.65;57.69
68656;BME280;55638;51.122;13.606;2023-01-31T07:15:18;100460.19;;;2.65;57.55
68656;BME280;55638;51.122;13.606;2023-01-31T07:16:50;100462.91;;;2.63;57.83
68656;BME280;55638;51.122;13.606;2023-01-31T07:18:22;100463.63;;;2.67;57.64
68656;BME280;55638;51.122;13.606;2023-01-31T07:19:54;100471.56;;;2.68;57.81
68656;BME280;55638;51.122;13.606;2023-01-31T07:21:26;100473.22;;;2.71;57.77
68656;BME280;55638;51.122;13.606;2023-01-31T07:23:00;100475.75;;;2.74;57.66
68656;BME280;55638;51.122;13.606;2023-01-31T07:24:32;100471.19;;;2.76;57.69
68656;BME280;55638;51.122;13.606;2023-01-31T07:26:04;100464.00;;;2.78;57.81
68656;BME280;55638;51.122;13.606;2023-01-31T07:27:36;100464.81;;;2.80;57.64
68656;BME280;55638;51.122;13.606;2023-01-31T07:29:08;100470.84;;;2.84;57.65
68656;BME280;55638;51.122;13.606;2023-01-31T07:30:40;100476.09;;;2.85;57.65
68656;BME280;55638;51.122;13.606;2023-01-31T07:32:14;100475.94;;;2.88;57.82
68656;BME280;55638;51.122;13.606;2023-01-31T07:33:46;100474.94;;;2.91;57.81
68656;BME280;55638;51.122;13.606;2023-01-31T07:35:18;100475.66;;;2.94;57.57
68656;BME280;55638;51.122;13.606;2023-01-31T07:36:51;100483.50;;;2.97;57.71
68656;BME280;55638;51.122;13.606;2023-01-31T07:38:22;100480.00;;;2.97;57.42
68656;BME280;55638;51.122;13.606;2023-01-31T07:39:54;100484.38;;;2.98;57.53
68656;BME280;55638;51.122;13.606;2023-01-31T07:41:26;100483.28;;;3.02;57.53
68656;BME280;55638;51.122;13.606;2023-01-31T07:42:58;100487.59;;;3.05;57.42
68656;BME280;55638;51.122;13.606;2023-01-31T07:44:30;100475.09;;;3.07;57.23
68656;BME280;55638;51.122;13.606;2023-01-31T07:46:05;100485.88;;;3.04;57.46
68656;BME280;55638;51.122;13.606;2023-01-31T07:47:40;100484.94;;;3.05;57.27
68656;BME280;55638;51.122;13.606;2023-01-31T07:49:13;100486.75;;;3.04;57.45
68656;BME280;55638;51.122;13.606;2023-01-31T07:50:45;100479.69;;;3.03;57.42
68656;BME280;55638;51.122;13.606;2023-01-31T07:52:17;100483.13;;;3.05;57.43
68656;BME280;55638;51.122;13.606;2023-01-31T07:53:48;100476.22;;;3.01;57.48
68656;BME280;55638;51.122;13.606;2023-01-31T07:55:20;100480.72;;;3.01;57.32
68656;BME280;55638;51.122;13.606;2023-01-31T07:56:52;100466.53;;;3.00;57.41
68656;BME280;55638;51.122;13.606;2023-01-31T07:58:24;100471.91;;;2.99;57.40
68656;BME280;55638;51.122;13.606;2023-01-31T07:59:56;100478.25;;;2.96;57.59
68656;BME280;55638;51.122;13.606;2023-01-31T08:01:28;100469.41;;;2.95;57.52
68656;BME280;55638;51.122;13.606;2023-01-31T08:03:26;100465.16;;;2.91;57.67
68656;BME280;55638;51.122;13.606;2023-01-31T08:05:04;100469.63;;;2.91;57.51
68656;BME280;55638;51.122;13.606;2023-01-31T08:06:37;100464.34;;;2.89;57.61
68656;BME280;55638;51.122;13.606;2023-01-31T08:08:09;100464.50;;;2.86;57.84
68656;BME280;55638;51.122;13.606;2023-01-31T08:09:41;100468.06;;;2.87;57.89
68656;BME280;55638;51.122;13.606;2023-01-31T08:11:14;100467.09;;;2.88;57.70
68656;BME280;55638;51.122;13.606;2023-01-31T08:12:45;100478.69;;;2.87;57.88
68656;BME280;55638;51.122;13.606;2023-01-31T08:14:20;100480.41;;;2.88;57.99
68656;BME280;55638;51.122;13.606;2023-01-31T08:15:56;100475.94;;;2.88;58.19
68656;BME280;55638;51.122;13.606;2023-01-31T08:17:27;100474.09;;;2.90;58.00
68656;BME280;55638;51.122;13.606;2023-01-31T08:19:00;100473.09;;;2.93;58.26
68656;BME280;55638;51.122;13.606;2023-01-31T08:20:32;100473.00;;;2.94;58.18
68656;BME280;55638;51.122;13.606;2023-01-31T08:22:04;100482.56;;;2.99;58.29
68656;BME280;55638;51.122;13.606;2023-01-31T08:23:36;100478.84;;;3.03;57.99
68656;BME280;55638;51.122;13.606;2023-01-31T08:25:09;100482.28;;;3.05;57.90
68656;BME280;55638;51.122;13.606;2023-01-31T08:26:41;100486.50;;;3.09;57.80
68656;BME280;55638;51.122;13.606;2023-01-31T08:28:15;100486.38;;;3.12;57.70
68656;BME280;55638;51.122;13.606;2023-01-31T08:29:46;100483.56;;;3.15;57.81
68656;BME280;55638;51.122;13.606;2023-01-31T08:31:24;100481.75;;;3.15;57.40
68656;BME280;55638;51.122;13.606;2023-01-31T08:32:56;100484.22;;;3.20;57.50
68656;BME280;55638;51.122;13.606;2023-01-31T08:34:31;100485.00;;;3.22;57.36
68656;BME280;55638;51.122;13.606;2023-01-31T08:37:41;100484.78;;;3.27;57.37